Vliegveldwaarnemingen Nederland - (AUTO) METAR

Luchtvaartmeteorologische informatie voor operationeel gebruik en vluchtvoorbereiding is beschikbaar op www.luchtvaartmeteo.nl.

ZCZC
SA311155 EHFS     VLISSINGEN AWS   NLD   8 m.
METAR EHFS 311155Z AUTO 24025KT 9999 OVC016/// 07/06 Q1022=

ZCZC
SA311155 EHSG     BSA   NLD   43 m.
METAR EHSG 311155Z AUTO 24026KT //// // SCT011/// BKN014/// OVC016///
08/05 Q1022 RE//=

ZCZC
SA311225 EHKD     DE KOOY/DE KOOY   NLD   1 m.
METAR EHKD 311225Z AUTO 25020KT 9999 SCT044 BKN049 08/06 Q1016
BLU NOSIG=

ZCZC
SA311225 EHFD     F3-FB-1   NLD   50 m.
METAR EHFD 311225Z AUTO 28041G51KT 6000 FEW017/// SCT049/// 07/03
Q1009 REDZ=

ZCZC
SA311225 EHAM     AMSTERDAM/SCHIPHOL   NLD   -3 m.
METAR EHAM 311225Z 25023KT 9999 FEW012 BKN040 09/06 Q1018 NOSIG=

ZCZC
SA311225 EHVL     VLIELAND   NLD   10 m.
METAR EHVL 311225Z AUTO 26028KT 9000 BR FEW029 BKN035 09/07 Q1015 BLU=

ZCZC
SA311225 EHJR     K13-A   NLD   37 m.
METAR EHJR 311225Z AUTO 27033KT //// // ///////// 08/05 Q1016 RE//
W08/H24=

ZCZC
SA311225 EHLE     LELYSTAD/LELYSTAD   NLD   -3 m.
METAR EHLE 311225Z AUTO 26019KT 230V300 9999 FEW016 SCT021 09/06
Q1017 NOSIG=

ZCZC
SA311225 EHLW     LEEUWARDEN/LEEUWARDEN   NLD   1 m.
METAR EHLW 311225Z AUTO 26022KT 230V290 9999 FEW012 SCT037 BKN052
09/06 Q1014
BLU BECMG FEW015 SCT030=

ZCZC
SA311225 EHDL     ARNHEM/DEELEN   NLD   48 m.
METAR EHDL 311225Z AUTO 25011KT 190V300 2500 DZ SCT004 BKN006 OVC007
06/06 Q1018 YLO=

ZCZC
SA311225 EHGG     GRONINGEN/EELDE   NLD   5 m.
METAR EHGG 311225Z AUTO 25016KT 220V290 9999 SCT011 BKN013 OVC015
08/06 Q1015 TEMPO BKN013=

ZCZC
SA311225 EHSC     LICHTEILAND GOEREE   NLD   22 m.
METAR EHSC 311225Z AUTO 26026KT 9999 ///////// 08/07 Q1021 W08/H21=

ZCZC
SA311225 EHSA     EURO PLATFORM   NLD   19 m.
METAR EHSA 311225Z AUTO /////KT 9999 // ///////// 09/06 Q1020
W08/H22=

ZCZC
SA311225 EHWO     WOENSDRECHT/WOENSDRECHT   NLD   19 m.
METAR EHWO 311225Z AUTO 25019KT 230V290 2900 R25/P3000N BR FEW007
SCT009 OVC014 07/06 Q1021
YLO TEMPO 25015G25KT SCT007 BKN010 OVC014=

ZCZC
SA311225 EHRD     ROTTERDAM/THE HAGUE AIRPORT   NLD   -5 m.
METAR EHRD 311225Z AUTO 25015KT 210V280 9999 SCT012 OVC015 08/07
Q1020 BECMG BKN017=

ZCZC
SA311225 EHGR     GILZE-RIJEN/GILZE-RIJEN   NLD   14 m.
METAR EHGR 311225Z AUTO 26013KT 220V290 9999 BKN012 OVC014 08/05
Q1021
GRN TEMPO SCT011 BKN015=

ZCZC
SA311225 EHEH     EINDHOVEN/EINDHOVEN   NLD   22 m.
METAR EHEH 311225Z AUTO 23013KT 200V270 5000 -DZ FEW007 OVC014 07/05
Q1021
GRN TEMPO 24015G25KT 4500 -DZRA SCT007 BKN010 OVC014=

ZCZC
SA311225 EHVK     VOLKEL/VOLKEL   NLD   21 m.
METAR EHVK 311225Z AUTO 24013KT 6000 DZ FEW008 OVC013 07/05 Q1020
GRN BECMG 24015G25KT BKN010 OVC015=

ZCZC
SA311225 EHBK     MAASTRICHT/MAASTRICHT-AACHEN   NLD   114 m.
METAR EHBK 311225Z AUTO 23015KT 9999 BKN008 OVC010 06/05 Q1022 TEMPO
BKN012=

ZCZC
SA311225 EHKV     K14-FA-1C   NLD   41 m.
METAR EHKV 311225Z AUTO 28037KT 9999 NCD 08/05 Q1016=

ZCZC
SA311225 EHMG     L9-FF-1   NLD   44 m.
METAR EHMG 311225Z AUTO 26030KT 9999 FEW009 SCT030 08/05 Q1015=

ZCZC
SA311225 EHMA     AWG-1   NLD   40 m.
METAR EHMA 311225Z AUTO 27026KT 9000 SCT011 BKN013 BKN026 07/06
Q1014=

ZCZC
SA311225 EHDV     D15-FA-1   NLD   42 m.
METAR EHDV 311225Z AUTO 29033G44KT 9999 FEW026/// SCT030/// 08///
Q1013=

ZCZC
SA311225 EHAK     A12-CPP   NLD   48 m.
METAR EHAK 311225Z AUTO 30038KT 9999 FEW023/// 08/03 Q1009=

ZCZC
SA311225 EHJA     J6-A   NLD   45 m.
METAR EHJA 311225Z AUTO 26036KT 9999 SCT035/// BKN040/// BKN044///
08/05 Q1015=

ZCZC
SA311225 EHPG     P11-B   NLD   41 m.
METAR EHPG 311225Z AUTO 26028KT 230V300 9999 FEW012 09/06 Q1019=

ZCZC
SA311225 EHHW     BUITENGAATS/BG-OHVS2      42 m.
METAR EHHW 311225Z AUTO 27032KT 9999 FEW008/// SCT010/// 09/06 Q1012=

31/01/2023 13.30 uur LT